Weather reports worldwide

Advertisment
Nimes/Courbessac, France (7645): temperature & dewpoint: 08.12.2019 06:00:00 - 14.12.2019 06:00:00 (CET)Nimes/Courbessac, France (7645): temperature 5cm: 08.12.2019 06:00:00 - 14.12.2019 06:00:00 (CET)Nimes/Courbessac, France (7645): temperature -20cm: 08.12.2019 06:00:00 - 14.12.2019 06:00:00 (CET)Nimes/Courbessac, France (7645): wind speed & gusts: 08.12.2019 06:00:00 - 14.12.2019 06:00:00 (CET)Nimes/Courbessac, France (7645): wind direction: 08.12.2019 06:00:00 - 14.12.2019 06:00:00 (CET)Nimes/Courbessac, France (7645): reduced air pressure: 08.12.2019 06:00:00 - 14.12.2019 06:00:00 (CET)Nimes/Courbessac, France (7645): sunshine duration: 08.12.2019 06:00:00 - 14.12.2019 06:00:00 (CET)Nimes/Courbessac, France (7645): precipitation: 08.12.2019 06:00:00 - 14.12.2019 06:00:00 (CET)
Date & Time tt [°C] td [°C] tt 5cm [°C] tt -20cm [°C] ff [km/h] ff [kn] fx [km/h] fx [kn] dd ppp [hPa] sd [min] rr [mm]
14.12.2019 06:00:00 6,5 4,5 4,7 8,5 0 0 8 4 N 1004,5 0 0,0
14.12.2019 05:00:00 7,2 5,0 6,0 8,5 4 2 6 3 NNE 1004,7 0 0,0
14.12.2019 04:00:00 7,6 5,1 6,7 8,5 4 2 8 4 NW 1004,8 0 0,0
14.12.2019 03:00:00 7,5 5,1 6,5 8,5 3 2 13 7 NNE 1004,8 0 0,0
14.12.2019 02:00:00 7,1 5,6 6,3 8,5 3 2 7 4 N 1004,2 0 0,0
14.12.2019 01:00:00 7,7 6,2 6,8 8,6 0 0 9 5 N 1004,4 0 0,2
14.12.2019 00:00:00 7,8 5,1 6,7 8,6 5 3 11 6 ESE 1004,0 0 0,0
13.12.2019 23:00:00 8,3 4,5 7,4 8,6 6 3 11 6 NNE 1003,6 0 0,0
13.12.2019 22:00:00 8,1 5,0 6,8 8,7 2 1 7 4 NW 1002,9 0 0,0
13.12.2019 21:00:00 8,8 4,6 7,7 8,8 4 2 11 6 WNW 1001,8 0 0,0
13.12.2019 20:00:00 8,4 4,4 7,1 8,9 6 3 13 7 WNW 1001,1 0 0,0
13.12.2019 19:00:00 8,8 4,2 6,7 9,0 3 1 8 4 NNW 1000,9 0 0,0
13.12.2019 18:00:00 10,7 3,2 9,2 9,0 6 3 30 16 NW 999,6 0 0,0
13.12.2019 17:00:00 11,9 2,6 10,9 9,0 16 9 42 23 W 998,6 23 0,0
13.12.2019 16:00:00 13,4 3,2 13,2 8,9 13 7 40 22 W 997,7 58 0,0
13.12.2019 15:00:00 13,8 3,8 15,4 8,6 18 10 46 25 WSW 996,9 60 0,0
13.12.2019 14:00:00 13,5 3,8 14,5 8,3 21 12 59 32 WSW 996,2 51 0,0
13.12.2019 13:00:00 14,5 5,6 13,6 7,9 13 7 34 18 W 995,6 56 0,0
13.12.2019 12:00:00 13,2 7,6 12,7 7,7 5 3 24 13 W 995,2 41 0,0
13.12.2019 11:00:00 11,4 7,3 8,6 7,6 16 8 30 16 NNW 994,3 34 0,0
13.12.2019 10:00:00 8,4 7,2 7,4 7,5 14 8 31 17 WNW 993,0 7 0,0
13.12.2019 09:00:00 7,8 7,5 7,5 7,5 5 3 30 16 SW 991,7 0 2,2
13.12.2019 08:00:00 7,7 7,6 6,5 7,5 4 2 12 6 SSW 990,8 0 0,6
13.12.2019 07:00:00 6,5 6,2 5,9 7,4 3 2 6 3 S 991,2 0 0,0
13.12.2019 06:00:00 6,0 5,7 5,8 7,4 5 3 9 5 ESE 992,2 0 0,2
13.12.2019 05:00:00 5,9 5,6 5,6 7,4 5 3 11 6 E 993,8 0 0,0
13.12.2019 04:00:00 5,7 5,3 5,5 7,4 3 1 6 3 E 995,6 0 0,4
13.12.2019 03:00:00 5,6 5,2 5,4 7,4 4 2 8 4 E 996,8 0 0,0
13.12.2019 02:00:00 5,6 5,2 5,5 7,4 3 2 9 5 NNE 997,8 0 0,0
13.12.2019 01:00:00 5,7 5,3 5,4 7,4 5 3 9 5 NNE 998,6 0 0,0
13.12.2019 00:00:00 5,6 5,0 5,3 7,4 3 2 8 4 N 999,5 0 0,0
12.12.2019 23:00:00 5,4 4,7 5,1 7,4 4 2 10 6 NNE 1000,5 0 0,8
12.12.2019 22:00:00 5,7 4,8 5,4 7,4 5 3 8 5 NNE 1001,1 0 1,6
12.12.2019 21:00:00 6,0 4,5 5,1 7,4 0 0 11 6 N 1002,1 0 2,4
12.12.2019 20:00:00 6,6 3,6 5,5 7,4 7 4 14 7 E 1002,5 0 0,0
12.12.2019 19:00:00 6,8 3,0 6,3 7,4 4 2 7 4 NE 1003,6 0 0,0
12.12.2019 18:00:00 7,0 2,3 6,4 7,3 5 3 11 6 NE 1004,7 0 0,0
12.12.2019 17:00:00 7,5 2,8 7,1 7,1 8 4 12 6 ENE 1005,6 0 0,0
12.12.2019 16:00:00 8,6 2,6 8,6 7,0 8 5 20 11 ENE 1007,0 0 0,0
12.12.2019 15:00:00 10,4 3,0 10,6 6,6 11 6 19 11 E 1007,9 40 0,0
12.12.2019 14:00:00 10,5 2,1 11,6 6,2 5 3 13 7 SSE 1009,1 29 0,0
12.12.2019 13:00:00 10,4 2,5 10,3 5,9 9 5 12 7 ESE 1010,4 38 0,0
12.12.2019 12:00:00 10,2 2,3 10,1 5,7 4 2 12 6 SE 1011,6 48 0,0
12.12.2019 11:00:00 8,5 2,5 6,3 5,6 8 4 12 6 ESE 1012,6 60 0,0
12.12.2019 10:00:00 6,1 0,8 2,9 5,7 4 2 9 5 WSW 1012,6 55 0,0
12.12.2019 09:00:00 3,9 -0,1 -0,2 5,8 5 3 13 7 NNW 1012,8 28 0,0
12.12.2019 08:00:00 1,3 -0,8 -1,6 5,9 5 3 13 7 NW 1013,0 0 0,0
12.12.2019 07:00:00 4,8 -1,2 0,3 6,0 9 5 20 11 W 1012,5 0 0,0
12.12.2019 06:00:00 3,3 -0,3 -0,1 6,1 6 3 22 12 W 1012,4 0 0,0
12.12.2019 05:00:00 5,0 -0,4 -0,1 6,3 12 7 21 11 W 1012,3 0 0,0
12.12.2019 04:00:00 1,5 0,3 -0,3 6,4 4 2 15 8 W 1012,8 0 0,0
12.12.2019 03:00:00 3,4 0,8 0,2 6,6 4 2 19 10 W 1012,2 0 0,0
12.12.2019 02:00:00 3,1 2,5 -0,2 6,7 11 6 15 8 SW 1012,3 0 0,0
12.12.2019 01:00:00 3,5 2,6 0,3 6,8 3 2 13 7 WSW 1012,4 0 0,0
12.12.2019 00:00:00 3,9 3,3 0,4 6,9 6 3 12 6 WSW 1013,2 0 0,0
11.12.2019 23:00:00 2,8 1,9 -0,2 7,1 4 2 9 5 SW 1013,7 0 0,0
11.12.2019 22:00:00 4,2 2,1 1,6 7,2 6 3 17 9 W 1014,0 0 0,0
11.12.2019 21:00:00 4,7 2,7 3,4 7,2 9 5 16 9 W 1015,1 0 0,0
11.12.2019 20:00:00 4,8 3,6 4,0 7,2 7 4 17 9 W 1015,4 0 0,0
11.12.2019 19:00:00 4,9 3,9 4,3 7,2 4 2 10 5 NW 1015,5 0 0,0
11.12.2019 18:00:00 5,4 4,5 4,8 7,2 0 0 3 2 N 1015,6 0 0,2
11.12.2019 17:00:00 5,5 4,5 5,1 7,1 0 0 5 3 N 1015,5 0 0,4
11.12.2019 16:00:00 5,6 4,1 5,1 7,0 3 2 7 4 SE 1015,0 0 1,0
11.12.2019 15:00:00 6,2 3,5 5,3 6,9 0 0 7 4 N 1015,1 0 1,0
11.12.2019 14:00:00 7,6 1,0 6,9 6,7 3 2 13 7 W 1015,5 0 0,0
11.12.2019 13:00:00 7,2 0,6 7,4 6,5 8 5 16 9 W 1016,4 0 0,0
11.12.2019 12:00:00 7,2 -0,1 7,9 6,4 7 4 11 6 NW 1016,3 0 0,0
11.12.2019 11:00:00 7,0 0,4 6,2 6,2 3 2 8 4 NW 1017,0 0 0,0
11.12.2019 10:00:00 5,6 -0,5 4,2 6,3 5 3 13 7 NW 1017,5 0 0,0
11.12.2019 09:00:00 4,2 -1,2 2,6 6,3 6 4 13 7 WNW 1018,2 0 0,0
11.12.2019 08:00:00 3,6 -1,4 2,2 6,4 4 2 14 8 NNW 1018,4 0 0,0
11.12.2019 07:00:00 3,1 -1,3 1,3 6,4 9 5 21 11 WNW 1018,9 0 0,0
11.12.2019 06:00:00 3,3 -1,1 1,9 6,5 3 2 12 7 NNW 1019,4 0 0,0
11.12.2019 05:00:00 3,5 -0,9 2,0 6,5 5 3 15 8 NW 1020,1 0 0,0
11.12.2019 04:00:00 3,8 -1,0 3,0 6,6 8 4 20 11 NW 1020,6 0 0,0
11.12.2019 03:00:00 4,2 -0,8 0,2 6,8 10 6 19 10 NW 1020,8 0 0,0
11.12.2019 02:00:00 3,1 -1,8 0,6 6,9 5 3 22 12 E 1021,0 0 0,0
11.12.2019 01:00:00 5,0 -1,3 2,9 7,1 11 6 26 14 NNW 1021,5 0 0,0
11.12.2019 00:00:00 4,4 -1,4 -1,4 7,3 12 7 21 11 NNW 1021,8 0 0,0
10.12.2019 23:00:00 3,8 -2,4 0,4 7,5 5 3 18 10 S 1022,2 0 0,0
10.12.2019 22:00:00 5,6 -2,3 2,1 7,7 9 5 26 14 NW 1021,9 0 0,0
10.12.2019 21:00:00 5,4 -3,4 1,9 7,9 4 2 19 11 W 1021,9 0 0,0
10.12.2019 20:00:00 5,6 -3,0 1,9 8,0 6 3 24 13 SW 1022,4 0 0,0
10.12.2019 19:00:00 6,9 -2,8 4,7 8,1 16 9 29 15 N 1021,3 0 0,0
10.12.2019 18:00:00 7,4 -2,1 5,5 8,1 5 3 14 8 N 1021,8 0 0,0
10.12.2019 17:00:00 8,1 -1,4 6,8 8,1 10 5 21 11 N 1021,9 39 0,0
10.12.2019 16:00:00 9,8 -1,3 9,8 8,0 14 7 44 24 NNE 1022,4 39 0,0
10.12.2019 15:00:00 10,8 -4,9 11,2 7,9 19 11 48 26 WNW 1022,5 28 0,0
10.12.2019 14:00:00 10,6 -4,6 11,7 7,7 24 13 52 28 NW 1023,3 51 0,0
10.12.2019 13:00:00 10,7 -3,4 10,7 7,5 17 9 45 24 NW 1024,2 58 0,0
10.12.2019 12:00:00 10,1 -2,9 10,4 7,3 20 11 50 27 NW 1024,8 60 0,0
10.12.2019 11:00:00 9,1 -2,2 9,6 7,3 26 14 59 32 NW 1024,9 60 0,0
10.12.2019 10:00:00 8,4 -2,0 7,2 7,4 19 10 42 23 NNW 1025,6 60 0,0
10.12.2019 09:00:00 7,4 -2,1 6,0 7,5 16 8 53 29 NW 1025,3 30 0,0
10.12.2019 08:00:00 7,2 -2,0 6,4 7,6 23 12 59 32 NW 1024,3 0 0,0
10.12.2019 07:00:00 7,6 -1,9 6,7 7,7 27 15 59 32 NW 1024,5 0 0,0
10.12.2019 06:00:00 7,8 -1,7 6,7 7,8 21 11 47 25 NNW 1024,5 0 0,0
10.12.2019 05:00:00 8,2 -1,4 6,4 7,9 22 12 53 29 NNW 1023,9 0 0,0
10.12.2019 04:00:00 7,6 -1,6 6,6 8,1 14 8 47 26 NW 1023,2 0 0,0
10.12.2019 03:00:00 8,2 -3,0 6,5 8,2 20 11 38 21 NW 1022,5 0 0,0
10.12.2019 02:00:00 7,9 -2,2 5,5 8,4 14 8 30 16 WNW 1021,9 0 0,0
10.12.2019 01:00:00 8,0 -1,3 4,8 8,6 15 8 29 16 NW 1021,7 0 0,0
10.12.2019 00:00:00 6,8 0,0 4,9 8,7 9 5 18 10 NW 1021,8 0 0,0
09.12.2019 23:00:00 7,6 1,4 5,9 8,9 9 5 20 11 NNW 1021,2 0 0,0
09.12.2019 22:00:00 9,1 0,8 7,4 9,0 8 5 36 19 NNW 1020,6 0 0,0
09.12.2019 21:00:00 10,3 0,9 9,2 9,1 20 11 53 29 WNW 1019,6 0 0,0
09.12.2019 20:00:00 10,8 2,1 9,5 9,1 13 7 36 19 WNW 1018,8 0 0,0
09.12.2019 19:00:00 10,7 2,0 9,6 9,3 14 8 36 20 W 1017,6 0 0,0
09.12.2019 18:00:00 11,5 2,2 10,3 9,3 14 8 37 20 W 1016,7 0 0,0
09.12.2019 17:00:00 11,8 2,8 10,7 9,3 14 8 46 25 W 1015,7 21 0,0
09.12.2019 16:00:00 13,7 2,6 13,0 9,2 23 12 46 25 W 1015,3 60 0,0
09.12.2019 15:00:00 14,4 2,9 16,6 8,9 17 9 50 27 W 1014,8 60 0,0
09.12.2019 14:00:00 14,7 3,2 15,8 8,6 21 12 45 24 W 1014,7 51 0,0
09.12.2019 13:00:00 14,0 4,3 13,8 8,4 13 7 28 15 SW 1015,4 8 0,0
09.12.2019 12:00:00 13,5 4,6 14,4 8,2 8 4 23 12 SSW 1016,0 41 0,0
09.12.2019 11:00:00 13,3 4,7 12,9 8,0 10 5 22 12 SW 1016,7 46 0,0
09.12.2019 10:00:00 12,0 6,1 7,5 8,0 7 4 16 9 SW 1016,3 51 0,0
09.12.2019 09:00:00 8,2 5,5 4,8 8,1 2 1 7 4 N 1016,8 26 0,0
09.12.2019 08:00:00 9,1 5,1 6,6 8,2 5 3 29 15 W 1016,1 0 0,0
09.12.2019 07:00:00 8,3 5,0 4,8 8,3 13 7 17 9 SW 1016,4 0 0,0
09.12.2019 06:00:00 8,3 4,5 2,1 8,5 10 5 22 12 SW 1016,8 0 0,0
09.12.2019 05:00:00 5,8 3,3 2,4 8,6 3 1 14 8 W 1017,2 0 0,0
09.12.2019 04:00:00 7,3 3,9 3,3 8,7 3 2 12 7 S 1017,4 0 0,0
09.12.2019 03:00:00 10,3 3,8 6,9 8,8 6 3 39 21 W 1017,6 0 0,0
09.12.2019 02:00:00 11,4 5,3 7,5 8,8 22 12 39 21 W 1016,8 0 0,0
09.12.2019 01:00:00 8,7 8,4 6,9 8,9 5 3 8 4 SSW 1016,9 0 0,0
09.12.2019 00:00:00 8,6 8,2 7,1 8,9 3 2 8 4 WNW 1016,9 0 0,0
08.12.2019 23:00:00 8,8 8,3 7,7 8,9 3 2 6 3 W 1017,3 0 0,0
08.12.2019 22:00:00 8,6 7,8 7,9 9,0 0 0 4 2 N 1017,7 0 0,4
08.12.2019 21:00:00 8,6 7,5 7,1 9,0 0 0 7 4 N 1018,0 0 0,2
08.12.2019 20:00:00 7,8 6,3 5,5 9,1 4 2 7 4 WNW 1018,3 0 0,0
08.12.2019 19:00:00 8,5 6,5 6,8 9,2 4 2 7 4 WNW 1018,1 0 0,0
08.12.2019 18:00:00 9,2 6,8 5,9 9,2 4 2 8 4 NW 1018,3 0 0,0
08.12.2019 17:00:00 11,7 6,8 8,5 9,1 5 3 14 7 ESE 1018,1 21 0,0
08.12.2019 16:00:00 14,6 7,6 14,6 8,9 8 4 13 7 SE 1018,1 60 0,0
08.12.2019 15:00:00 14,6 7,6 19,1 8,5 6 4 11 6 ESE 1018,4 60 0,0
08.12.2019 14:00:00 14,5 7,5 18,8 8,0 6 3 12 6 E 1019,0 60 0,0
08.12.2019 13:00:00 14,0 6,4 12,6 7,7 5 3 11 6 E 1020,0 60 0,0
08.12.2019 12:00:00 12,8 6,4 13,5 7,5 5 3 8 4 SE 1020,9 60 0,0
08.12.2019 11:00:00 11,3 6,0 11,0 7,4 4 2 9 5 E 1021,7 60 0,0
08.12.2019 10:00:00 9,4 5,4 5,3 7,5 3 2 6 3 ENE 1021,4 60 0,0
08.12.2019 09:00:00 5,5 4,3 0,9 7,6 0 0 5 3 N 1021,6 32 0,0
08.12.2019 08:00:00 3,4 2,2 1,2 7,7 3 1 14 8 E 1021,2 0 0,0
08.12.2019 07:00:00 4,1 2,9 1,2 7,8 3 2 8 5 NW 1020,6 0 0,0
08.12.2019 06:00:00 6,7 4,7 1,5 8,0 8 4 14 8 NW 1020,6 0 0,0

tt = temperature
td = dewpoint
tt 5cm = temperature 5cm
tt -20cm = temperature -20cm
ff = wind speed
fx = gusts
dd = wind direction
ppp = reduced air pressure
sd = sunshine duration
rr = precipitation

Next stations